createdAt,value
2023-02-14T00:01:20.786Z,20.77
2023-02-14T00:03:49.591Z,25.17
2023-02-14T00:06:17.394Z,19.13
2023-02-14T00:08:45.210Z,17.67
2023-02-14T00:11:13.916Z,20.87
2023-02-14T00:14:01.481Z,23.40
2023-02-14T00:16:28.850Z,19.17
2023-02-14T00:19:05.335Z,22.20
2023-02-14T00:21:36.205Z,20.60
2023-02-14T00:24:11.850Z,19.83
2023-02-14T00:26:39.773Z,19.83
2023-02-14T00:29:11.147Z,23.10
2023-02-14T00:31:39.036Z,18.87
2023-02-14T00:34:07.329Z,19.00
2023-02-14T00:36:34.979Z,16.17
2023-02-14T00:39:07.875Z,21.07
2023-02-14T00:41:37.624Z,18.77
2023-02-14T00:44:05.354Z,17.23
2023-02-14T00:46:32.895Z,18.00
2023-02-14T00:49:00.309Z,16.53
2023-02-14T00:51:27.884Z,21.33
2023-02-14T00:53:55.372Z,15.67
2023-02-14T00:56:22.744Z,19.50
2023-02-14T00:58:50.405Z,18.03
2023-02-14T01:01:19.298Z,18.93
2023-02-14T01:03:47.288Z,19.27
2023-02-14T01:06:15.260Z,13.97
2023-02-14T01:08:42.659Z,13.97
2023-02-14T01:11:13.864Z,14.53
2023-02-14T01:13:41.906Z,12.87
2023-02-14T01:16:12.517Z,14.43
2023-02-14T01:18:40.733Z,13.17
2023-02-14T01:21:15.335Z,12.93
2023-02-14T01:23:43.607Z,12.50
2023-02-14T01:26:12.705Z,14.00
2023-02-14T01:28:40.670Z,12.73
2023-02-14T01:31:12.029Z,12.37
2023-02-14T01:33:40.614Z,13.13
2023-02-14T01:36:14.654Z,12.70
2023-02-14T01:38:42.094Z,11.83
2023-02-14T01:41:09.501Z,15.87
2023-02-14T01:43:53.658Z,15.93
2023-02-14T01:46:21.179Z,11.17
2023-02-14T01:48:50.871Z,11.73
2023-02-14T01:51:20.179Z,8.80
2023-02-14T01:53:49.088Z,12.40
2023-02-14T01:56:25.249Z,8.33
2023-02-14T01:58:56.645Z,7.53
2023-02-14T02:01:24.527Z,9.53
2023-02-14T02:03:54.406Z,13.13
2023-02-14T02:06:26.460Z,10.43
2023-02-14T02:09:12.612Z,8.88
2023-02-14T02:11:41.180Z,10.20
2023-02-14T02:14:16.041Z,13.13
2023-02-14T02:17:10.165Z,12.97
2023-02-14T02:19:54.827Z,11.47
2023-02-14T02:22:51.568Z,10.30
2023-02-14T02:25:40.219Z,11.60
2023-02-14T02:28:35.095Z,12.73
2023-02-14T02:31:36.103Z,14.70
2023-02-14T02:34:11.261Z,9.83
2023-02-14T02:37:05.668Z,11.00
2023-02-14T02:39:49.338Z,11.10
2023-02-14T02:43:08.826Z,12.87
2023-02-14T02:46:27.092Z,10.00
2023-02-14T02:49:01.202Z,12.30
2023-02-14T02:52:03.035Z,12.90
2023-02-14T02:54:37.927Z,12.80
2023-02-14T02:57:12.783Z,12.67
2023-02-14T02:59:42.870Z,11.13
2023-02-14T03:02:28.891Z,12.50
2023-02-14T03:05:02.189Z,13.27
2023-02-14T03:07:35.675Z,13.93
2023-02-14T03:10:08.280Z,12.40
2023-02-14T03:12:35.792Z,11.60
2023-02-14T03:15:21.473Z,10.83
2023-02-14T03:18:13.967Z,8.20
2023-02-14T03:20:55.059Z,11.52
2023-02-14T03:23:33.766Z,10.30
2023-02-14T03:26:12.898Z,13.20
2023-02-14T03:28:48.009Z,12.90
2023-02-14T03:31:34.588Z,9.47
2023-02-14T03:34:47.856Z,15.40
2023-02-14T03:37:22.173Z,10.57
2023-02-14T03:39:55.670Z,14.53
2023-02-14T03:42:31.862Z,12.23
2023-02-14T03:45:00.719Z,11.30
2023-02-14T03:47:32.909Z,12.33
2023-02-14T03:50:06.241Z,10.82
2023-02-14T03:52:36.923Z,13.87
2023-02-14T03:55:09.777Z,11.30
2023-02-14T03:58:16.677Z,12.73
2023-02-14T04:00:45.099Z,10.73
2023-02-14T04:03:15.489Z,14.23
2023-02-14T04:05:46.841Z,12.47
2023-02-14T04:08:24.851Z,12.13
2023-02-14T04:10:53.495Z,12.47
2023-02-14T04:13:21.538Z,14.33
2023-02-14T04:15:48.943Z,11.80
2023-02-14T04:18:54.473Z,12.33
2023-02-14T04:21:21.710Z,12.80
2023-02-14T04:23:48.956Z,12.03
2023-02-14T04:26:16.117Z,13.40
2023-02-14T04:28:43.508Z,16.20
2023-02-14T04:31:11.722Z,14.80
2023-02-14T04:33:39.521Z,12.03
2023-02-14T04:36:07.148Z,13.23
2023-02-14T04:38:34.608Z,13.33
2023-02-14T04:41:02.267Z,13.10
2023-02-14T04:43:29.794Z,13.53
2023-02-14T04:45:57.262Z,15.23
2023-02-14T04:48:24.581Z,13.97
2023-02-14T04:50:54.213Z,12.57
2023-02-14T04:53:22.249Z,12.27
2023-02-14T04:55:50.237Z,12.53
2023-02-14T04:58:18.385Z,17.83
2023-02-14T05:00:45.713Z,12.27
2023-02-14T05:03:13.026Z,14.77
2023-02-14T05:05:40.304Z,13.37
2023-02-14T05:08:07.749Z,14.00
2023-02-14T05:10:35.059Z,12.07
2023-02-14T05:13:02.397Z,11.53
2023-02-14T05:15:29.721Z,13.40
2023-02-14T05:18:01.824Z,14.40
2023-02-14T05:20:30.542Z,16.02
2023-02-14T05:23:03.674Z,13.93
2023-02-14T05:25:31.963Z,14.23
2023-02-14T05:27:59.305Z,12.27
2023-02-14T05:30:28.242Z,11.63
2023-02-14T05:32:55.655Z,13.77
2023-02-14T05:35:23.087Z,15.10
2023-02-14T05:37:50.500Z,14.47
2023-02-14T05:40:17.999Z,15.33
2023-02-14T05:42:45.354Z,15.60
2023-02-14T05:45:13.386Z,16.70
2023-02-14T05:47:41.075Z,16.97
2023-02-14T05:50:08.846Z,15.03
2023-02-14T05:52:36.343Z,12.63
2023-02-14T05:55:04.123Z,16.53
2023-02-14T05:57:31.607Z,12.83
2023-02-14T05:59:58.958Z,13.80
2023-02-14T06:02:26.375Z,11.17
2023-02-14T06:04:53.740Z,18.23
2023-02-14T06:07:21.077Z,13.97
2023-02-14T06:09:48.324Z,14.73
2023-02-14T06:12:15.617Z,14.97
2023-02-14T06:14:43.379Z,14.77
2023-02-14T06:17:10.842Z,13.90
2023-02-14T06:19:38.212Z,16.83
2023-02-14T06:22:05.565Z,17.70
2023-02-14T06:24:32.802Z,12.60
2023-02-14T06:27:00.381Z,16.33
2023-02-14T06:29:27.868Z,14.40
2023-02-14T06:31:55.252Z,15.87
2023-02-14T06:34:22.589Z,14.83
2023-02-14T06:36:49.876Z,15.67
2023-02-14T06:39:17.256Z,13.67
2023-02-14T06:41:44.525Z,14.10
2023-02-14T06:44:11.811Z,15.47
2023-02-14T06:46:39.173Z,15.13
2023-02-14T06:49:06.592Z,17.23
2023-02-14T06:51:33.937Z,12.10
2023-02-14T06:54:01.225Z,14.23
2023-02-14T06:56:29.002Z,14.27
2023-02-14T06:58:56.281Z,13.50
2023-02-14T07:01:23.636Z,17.57
2023-02-14T07:03:50.913Z,14.93
2023-02-14T07:06:18.205Z,13.33
2023-02-14T07:08:45.776Z,15.10
2023-02-14T07:11:13.017Z,13.90
2023-02-14T07:13:40.433Z,12.67
2023-02-14T07:16:07.817Z,16.53
2023-02-14T07:18:35.490Z,17.07
2023-02-14T07:21:03.123Z,12.13
2023-02-14T07:23:30.738Z,14.03
2023-02-14T07:25:57.992Z,16.30
2023-02-14T07:28:25.446Z,13.93
2023-02-14T07:30:52.836Z,13.07
2023-02-14T07:33:20.200Z,13.57
2023-02-14T07:35:47.504Z,15.63
2023-02-14T07:38:14.907Z,16.40
2023-02-14T07:40:42.278Z,14.93
2023-02-14T07:43:09.621Z,15.63
2023-02-14T07:45:36.991Z,17.00
2023-02-14T07:48:04.486Z,18.90
2023-02-14T07:50:31.946Z,13.87
2023-02-14T07:52:59.323Z,12.40
2023-02-14T07:55:26.703Z,16.57
2023-02-14T07:57:54.149Z,11.50
2023-02-14T08:00:21.938Z,9.50
2023-02-14T08:02:49.660Z,12.77
2023-02-14T08:05:18.101Z,8.93
2023-02-14T08:07:48.453Z,11.93
2023-02-14T08:10:15.782Z,9.93
2023-02-14T08:13:01.351Z,11.93
2023-02-14T08:15:54.542Z,11.93
2023-02-14T08:18:27.323Z,9.60
2023-02-14T08:23:22.620Z,11.10
2023-02-14T08:25:51.152Z,9.87
2023-02-14T08:28:21.719Z,8.07
2023-02-14T08:30:49.690Z,10.63
2023-02-14T08:33:17.096Z,11.00
2023-02-14T08:35:44.524Z,7.87
2023-02-14T08:38:12.776Z,11.10
2023-02-14T08:40:40.284Z,9.43
2023-02-14T08:43:08.062Z,8.93
2023-02-14T08:45:36.022Z,10.43
2023-02-14T08:48:08.980Z,7.40
2023-02-14T08:50:37.084Z,9.03
2023-02-14T08:53:13.295Z,9.97
2023-02-14T08:55:41.120Z,11.60
2023-02-14T08:58:09.299Z,12.27
2023-02-14T09:00:36.879Z,9.07
2023-02-14T09:03:04.622Z,11.17
2023-02-14T09:05:32.037Z,9.67
2023-02-14T09:07:59.759Z,12.40
2023-02-14T09:10:28.626Z,13.67
2023-02-14T09:12:56.132Z,9.20
2023-02-14T09:15:23.530Z,11.07
2023-02-14T09:17:52.170Z,9.23
2023-02-14T09:20:20.102Z,13.07
2023-02-14T09:22:48.828Z,12.97
2023-02-14T09:25:19.778Z,12.60
2023-02-14T09:27:47.164Z,10.17
2023-02-14T09:30:15.287Z,10.90
2023-02-14T09:32:42.693Z,12.10
2023-02-14T09:35:09.988Z,18.37
2023-02-14T09:37:55.664Z,15.07
2023-02-14T09:40:23.314Z,14.77
2023-02-14T09:43:01.998Z,14.53
2023-02-14T09:45:32.442Z,15.57
2023-02-14T09:48:08.194Z,14.40
2023-02-14T09:50:42.682Z,14.40
2023-02-14T09:53:16.127Z,14.53
2023-02-14T09:56:00.253Z,17.43
2023-02-14T09:58:47.791Z,18.00
2023-02-14T10:01:26.674Z,15.23
2023-02-14T10:04:22.146Z,20.07
2023-02-14T10:06:51.215Z,16.67
2023-02-14T10:09:46.553Z,18.47
2023-02-14T10:12:36.930Z,18.37
2023-02-14T10:15:39.650Z,18.03
2023-02-14T10:18:43.433Z,16.45
2023-02-14T10:21:39.566Z,19.53
2023-02-14T10:24:28.726Z,20.60
2023-02-14T10:27:12.766Z,17.40
2023-02-14T10:29:41.460Z,17.40
2023-02-14T10:32:15.103Z,19.43
2023-02-14T10:34:49.842Z,21.07
2023-02-14T10:38:07.894Z,18.53
2023-02-14T10:40:59.824Z,18.50
2023-02-14T10:43:51.876Z,19.73
2023-02-14T10:46:39.127Z,20.53
2023-02-14T10:49:25.409Z,16.33
2023-02-14T10:52:15.621Z,18.40
2023-02-14T10:54:46.378Z,17.87
2023-02-14T10:57:20.867Z,17.47
2023-02-14T11:00:23.572Z,19.80
2023-02-14T11:03:00.251Z,16.35
2023-02-14T11:05:41.834Z,17.27
2023-02-14T11:08:40.473Z,21.90
2023-02-14T11:11:32.515Z,16.42
2023-02-14T11:14:00.001Z,16.50
2023-02-14T11:16:36.929Z,19.05
2023-02-14T11:19:16.402Z,18.83
2023-02-14T11:21:46.797Z,21.10
2023-02-14T11:24:39.053Z,21.10
2023-02-14T11:27:12.504Z,19.70
2023-02-14T11:29:39.858Z,20.92
2023-02-14T11:32:20.723Z,21.55
2023-02-14T11:34:57.599Z,19.08
2023-02-14T11:37:43.021Z,18.50
2023-02-14T11:40:30.950Z,19.38
2023-02-14T11:43:19.282Z,18.77
2023-02-14T11:45:48.906Z,19.98
2023-02-14T11:48:34.901Z,19.38
2023-02-14T11:51:14.176Z,16.63
2023-02-14T11:53:57.157Z,20.52
2023-02-14T11:56:24.657Z,20.27
2023-02-14T11:58:58.422Z,18.40
2023-02-14T12:01:30.091Z,17.27
2023-02-14T12:04:03.803Z,22.60
2023-02-14T12:06:35.584Z,22.00
2023-02-14T12:09:24.955Z,19.23
2023-02-14T12:12:19.936Z,18.98
2023-02-14T12:14:48.450Z,19.98
2023-02-14T12:17:18.618Z,21.38
2023-02-14T12:20:11.679Z,20.63
2023-02-14T12:25:48.018Z,21.23
2023-02-14T12:30:50.186Z,23.00
2023-02-14T12:33:22.239Z,20.05
2023-02-14T12:35:55.383Z,18.23
2023-02-14T12:39:05.592Z,17.25
2023-02-14T12:41:48.484Z,19.15
2023-02-14T12:47:32.332Z,18.20
2023-02-14T12:50:41.457Z,18.70
2023-02-14T12:53:37.918Z,21.50
2023-02-14T12:56:11.038Z,19.48
2023-02-14T12:59:22.365Z,21.40
2023-02-14T13:02:01.982Z,21.13
2023-02-14T13:04:29.362Z,18.08
2023-02-14T13:07:15.485Z,19.77
2023-02-14T13:09:54.818Z,23.15
2023-02-14T13:12:47.033Z,22.00
2023-02-14T13:15:55.196Z,24.17
2023-02-14T13:18:47.154Z,21.98
2023-02-14T13:21:18.591Z,20.55
2023-02-14T13:23:48.892Z,18.63
2023-02-14T13:26:20.877Z,18.83
2023-02-14T13:28:56.457Z,20.95
2023-02-14T13:31:24.355Z,22.25
2023-02-14T13:34:03.589Z,22.05
2023-02-14T13:36:31.983Z,22.98
2023-02-14T13:39:00.416Z,18.75
2023-02-14T13:41:28.996Z,21.20
2023-02-14T13:43:57.231Z,19.88
2023-02-14T13:46:33.511Z,21.73
2023-02-14T13:49:38.825Z,23.30
2023-02-14T13:52:06.877Z,20.38
2023-02-14T13:54:36.358Z,21.13
2023-02-14T13:57:25.749Z,24.65
2023-02-14T14:00:17.675Z,18.65
2023-02-14T14:02:48.929Z,19.60
2023-02-14T14:05:32.670Z,21.73
2023-02-14T14:08:22.546Z,18.10
2023-02-14T14:11:00.121Z,17.00
2023-02-14T14:13:42.693Z,22.67
2023-02-14T14:16:39.339Z,20.38
2023-02-14T14:19:09.537Z,17.63
2023-02-14T14:21:45.295Z,18.98
2023-02-14T14:24:29.269Z,17.73
2023-02-14T14:27:04.262Z,19.58
2023-02-14T14:29:46.368Z,19.38
2023-02-14T14:32:37.889Z,23.30
2023-02-14T14:35:19.979Z,23.73
2023-02-14T14:37:50.206Z,22.60
2023-02-14T14:40:28.944Z,21.13
2023-02-14T14:43:27.280Z,22.58
2023-02-14T14:45:56.528Z,22.40
2023-02-14T14:48:51.019Z,24.75
2023-02-14T14:51:34.631Z,22.55
2023-02-14T14:54:06.230Z,19.88
2023-02-14T14:56:37.458Z,21.85
2023-02-14T14:59:28.438Z,20.88
2023-02-14T15:01:55.836Z,18.08
2023-02-14T15:04:34.386Z,18.90
2023-02-14T15:07:19.900Z,17.73
2023-02-14T15:09:47.379Z,20.85
2023-02-14T15:12:38.885Z,19.77
2023-02-14T15:15:10.215Z,17.15
2023-02-14T15:17:38.535Z,20.65
2023-02-14T15:20:26.619Z,18.73
2023-02-14T15:22:54.657Z,21.55
2023-02-14T15:25:27.072Z,17.92
2023-02-14T15:27:54.447Z,19.20
2023-02-14T15:30:31.013Z,19.42
2023-02-14T15:32:59.272Z,18.80
2023-02-14T15:35:30.750Z,20.02
2023-02-14T15:38:02.766Z,20.20
2023-02-14T15:40:33.712Z,19.65
2023-02-14T15:43:27.906Z,19.88
2023-02-14T15:46:00.139Z,20.38
2023-02-14T15:48:34.050Z,22.20
2023-02-14T15:51:04.967Z,16.88
2023-02-14T15:53:36.574Z,21.27
2023-02-14T15:56:11.451Z,19.17
2023-02-14T15:58:40.773Z,21.20
2023-02-14T16:01:09.550Z,20.55
2023-02-14T16:03:43.705Z,18.58
2023-02-14T16:06:30.571Z,21.48
2023-02-14T16:08:58.420Z,18.23
2023-02-14T16:11:38.200Z,20.65
2023-02-14T16:14:37.636Z,18.13
2023-02-14T16:17:12.898Z,18.70
2023-02-14T16:19:43.222Z,21.63
2023-02-14T16:22:13.358Z,17.02
2023-02-14T16:24:42.180Z,16.33
2023-02-14T16:27:09.785Z,17.27
2023-02-14T16:29:37.268Z,17.83
2023-02-14T16:32:20.328Z,16.23
2023-02-14T16:34:48.848Z,20.35
2023-02-14T16:37:33.750Z,18.40
2023-02-14T16:40:02.028Z,20.88
2023-02-14T16:42:29.476Z,23.63
2023-02-14T16:44:57.829Z,19.33
2023-02-14T16:47:27.946Z,18.70
2023-02-14T16:49:55.492Z,19.27
2023-02-14T16:52:25.687Z,20.83
2023-02-14T16:54:53.650Z,16.35
2023-02-14T16:57:37.363Z,19.92
2023-02-14T17:00:06.640Z,20.73
2023-02-14T17:02:37.563Z,21.75
2023-02-14T17:05:05.256Z,19.42
2023-02-14T17:07:33.825Z,20.98
2023-02-14T17:10:09.068Z,22.40
2023-02-14T17:12:40.509Z,23.00
2023-02-14T17:15:13.225Z,19.65
2023-02-14T17:20:08.796Z,19.23
2023-02-14T17:22:37.623Z,20.40
2023-02-14T17:25:06.315Z,19.83
2023-02-14T17:27:33.734Z,17.90
2023-02-14T17:30:01.147Z,18.98
2023-02-14T17:32:28.540Z,23.17
2023-02-14T17:34:56.637Z,18.42
2023-02-14T17:37:24.099Z,17.83
2023-02-14T17:39:53.221Z,17.85
2023-02-14T17:42:20.497Z,20.20
2023-02-14T17:44:47.764Z,21.20
2023-02-14T17:47:16.338Z,20.60
2023-02-14T17:49:47.288Z,19.13
2023-02-14T17:52:15.822Z,20.05
2023-02-14T17:54:43.310Z,19.80
2023-02-14T17:57:12.723Z,20.77
2023-02-14T17:59:40.192Z,23.92
2023-02-14T18:02:07.682Z,22.60
2023-02-14T18:04:36.500Z,20.85
2023-02-14T18:07:05.004Z,22.63
2023-02-14T18:09:32.673Z,22.55
2023-02-14T18:11:59.968Z,19.55
2023-02-14T18:14:27.622Z,21.90
2023-02-14T18:16:54.975Z,19.65
2023-02-14T18:19:22.256Z,22.55
2023-02-14T18:21:49.715Z,22.50
2023-02-14T18:24:18.496Z,27.30
2023-02-14T18:26:48.946Z,21.02
2023-02-14T18:29:16.400Z,22.45
2023-02-14T18:31:45.631Z,23.33
2023-02-14T18:34:13.159Z,20.42
2023-02-14T18:36:41.914Z,27.55
2023-02-14T18:39:10.666Z,22.98
2023-02-14T18:41:38.483Z,18.95
2023-02-14T18:44:06.452Z,20.00
2023-02-14T18:46:35.942Z,18.52
2023-02-14T18:49:07.245Z,17.75
2023-02-14T18:51:38.026Z,15.27
2023-02-14T18:54:05.886Z,11.00
2023-02-14T18:56:36.487Z,13.18
2023-02-14T18:59:14.332Z,17.05
2023-02-14T19:01:45.996Z,15.35
2023-02-14T19:04:13.864Z,17.83
2023-02-14T19:06:42.465Z,20.17
2023-02-14T19:09:17.282Z,20.27
2023-02-14T19:11:45.052Z,18.83
2023-02-14T19:14:13.550Z,14.32
2023-02-14T19:16:52.315Z,15.83
2023-02-14T19:19:20.351Z,17.80
2023-02-14T19:21:48.359Z,20.40
2023-02-14T19:24:17.516Z,17.40
2023-02-14T19:26:45.211Z,15.17
2023-02-14T19:29:15.783Z,14.80
2023-02-14T19:31:48.431Z,14.23
2023-02-14T19:34:29.644Z,9.97
2023-02-14T19:37:00.002Z,9.87
2023-02-14T19:39:31.953Z,10.00
2023-02-14T19:42:03.352Z,8.73
2023-02-14T19:44:31.427Z,11.77
2023-02-14T19:47:02.741Z,13.60
2023-02-14T19:49:32.444Z,13.93
2023-02-14T19:52:00.213Z,10.67
2023-02-14T19:54:27.513Z,10.27
2023-02-14T19:56:56.524Z,10.53
2023-02-14T19:59:24.037Z,8.70
2023-02-14T20:01:53.430Z,8.47
2023-02-14T20:04:25.907Z,7.37
2023-02-14T20:09:23.324Z,4.83
2023-02-14T20:11:54.543Z,4.77
2023-02-14T20:14:28.299Z,4.77
2023-02-14T20:16:57.750Z,5.40
2023-02-14T20:19:30.281Z,5.53
2023-02-14T20:22:00.746Z,5.23
2023-02-14T20:24:32.563Z,6.70
2023-02-14T20:27:00.715Z,6.23
2023-02-14T20:29:28.502Z,6.90
2023-02-14T20:31:59.899Z,7.33
2023-02-14T20:34:29.332Z,8.53
2023-02-14T20:37:00.485Z,5.00
2023-02-14T20:39:34.036Z,4.80
2023-02-14T20:42:02.164Z,6.07
2023-02-14T20:44:32.912Z,6.57
2023-02-14T20:47:02.124Z,5.90
2023-02-14T20:49:31.361Z,6.30
2023-02-14T20:52:06.443Z,6.83
2023-02-14T20:54:38.998Z,5.03
2023-02-14T20:57:06.348Z,5.07
2023-02-14T20:59:33.770Z,5.23
2023-02-14T21:02:01.145Z,4.23
2023-02-14T21:04:29.718Z,4.63
2023-02-14T21:06:58.046Z,6.33
2023-02-14T21:09:25.427Z,6.77
2023-02-14T21:11:54.197Z,8.13
2023-02-14T21:14:21.525Z,8.23
2023-02-14T21:16:48.809Z,7.00
2023-02-14T21:19:16.300Z,7.50
2023-02-14T21:21:43.902Z,10.33
2023-02-14T21:24:16.061Z,4.63
2023-02-14T21:26:44.118Z,5.20
2023-02-14T21:29:11.522Z,6.93
2023-02-14T21:31:39.356Z,6.63
2023-02-14T21:34:07.029Z,7.47
2023-02-14T21:36:38.183Z,6.00
2023-02-14T21:39:06.788Z,8.80
2023-02-14T21:41:35.522Z,8.33
2023-02-14T21:44:04.370Z,7.47
2023-02-14T21:46:36.981Z,6.93
2023-02-14T21:51:51.863Z,7.00
2023-02-14T21:54:19.327Z,4.63
2023-02-14T21:56:46.694Z,7.47
2023-02-14T21:59:14.618Z,5.53
2023-02-14T22:01:42.929Z,5.90
2023-02-14T22:04:12.344Z,6.10
2023-02-14T22:06:41.109Z,6.63
2023-02-14T22:09:09.588Z,4.97
2023-02-14T22:11:37.118Z,6.30
2023-02-14T22:14:04.620Z,4.90
2023-02-14T22:16:32.028Z,5.63
2023-02-14T22:18:59.308Z,4.73
2023-02-14T22:21:27.270Z,8.23
2023-02-14T22:23:55.618Z,7.53
2023-02-14T22:26:25.931Z,5.87
2023-02-14T22:29:00.435Z,7.10
2023-02-14T22:31:32.374Z,7.40
2023-02-14T22:34:00.396Z,6.28
2023-02-14T22:36:27.869Z,7.93
2023-02-14T22:38:55.352Z,5.87
2023-02-14T22:41:24.384Z,5.50
2023-02-14T22:43:53.449Z,5.87
2023-02-14T22:46:28.074Z,4.50
2023-02-14T22:48:56.875Z,4.57
2023-02-14T22:51:28.868Z,5.33
2023-02-14T22:54:00.340Z,3.92
2023-02-14T22:56:37.134Z,4.87
2023-02-14T22:59:14.069Z,5.13
2023-02-14T23:01:41.583Z,4.43
2023-02-14T23:04:09.441Z,4.17
2023-02-14T23:06:37.659Z,8.07
2023-02-14T23:09:08.074Z,4.40
2023-02-14T23:11:37.529Z,5.43
2023-02-14T23:14:24.054Z,5.23
2023-02-14T23:17:09.903Z,5.63
2023-02-14T23:19:56.340Z,5.10
2023-02-14T23:22:33.128Z,4.43
2023-02-14T23:25:03.735Z,5.83
2023-02-14T23:27:33.226Z,5.23
2023-02-14T23:30:00.912Z,4.87
2023-02-14T23:32:28.632Z,4.83
2023-02-14T23:34:55.930Z,4.53
2023-02-14T23:37:23.313Z,6.37
2023-02-14T23:39:53.361Z,5.47
2023-02-14T23:42:20.842Z,6.10
2023-02-14T23:44:49.232Z,5.83
2023-02-14T23:47:16.626Z,5.40
2023-02-14T23:49:45.933Z,5.83
2023-02-14T23:52:14.446Z,7.60
2023-02-14T23:54:41.864Z,6.33
2023-02-14T23:57:09.361Z,6.03
2023-02-14T23:59:36.828Z,6.23
